Time;durP1;ratioP1;P1;durP2;ratioP2;P2;SDS_P1;SDS_P2;PMS_P1;PMS_P2;Temp;Humidity;BMP_temperature;BMP_pressure;BME280_temperature;BME280_humidity;BME280_pressure;Samples;Min_cycle;Max_cycle;Signal;HPM_P1;HPM_P2
2021/01/13 00:00:28;;;;;;;6.30;5.63;;;3.30;95.80;;;;;;6377250;27;20368;-75
2021/01/13 00:03:29;;;;;;;5.68;5.18;;;2.70;99.90;;;;;;6376721;27;20042;-76
2021/01/13 00:06:29;;;;;;;6.40;5.72;;;2.90;99.90;;;;;;6376841;27;20102;-77
2021/01/13 00:09:30;;;;;;;7.55;5.85;;;3.10;95.90;;;;;;6376810;27;20059;-77
2021/01/13 00:12:31;;;;;;;6.18;5.32;;;2.60;95.70;;;;;;6376958;27;20023;-75
2021/01/13 00:15:31;;;;;;;6.22;5.60;;;2.80;96.00;;;;;;6358328;27;20062;-76
2021/01/13 00:18:32;;;;;;;7.07;6.00;;;2.60;95.70;;;;;;6358379;27;20023;-76
2021/01/13 00:21:32;;;;;;;6.80;5.50;;;2.90;95.90;;;;;;6376571;27;20019;-76
2021/01/13 00:24:33;;;;;;;6.72;5.97;;;3.40;95.80;;;;;;6376384;27;20035;-77
2021/01/13 00:27:34;;;;;;;6.40;5.68;;;2.70;95.30;;;;;;6376363;27;20436;-76
2021/01/13 00:30:34;;;;;;;7.55;6.10;;;2.60;95.40;;;;;;6376256;27;20031;-76
2021/01/13 00:33:35;;;;;;;7.07;6.38;;;2.70;95.10;;;;;;6376501;27;20114;-76
2021/01/13 00:36:35;;;;;;;6.85;6.15;;;3.40;95.40;;;;;;6376193;27;20020;-75
2021/01/13 00:39:37;;;;;;;9.65;6.75;;;;;;;;;;6375966;27;20392;-76
2021/01/13 00:42:44;;;;;;;6.68;6.07;;;3.60;99.00;;;;;;6375382;27;20022;-77
2021/01/13 00:45:45;;;;;;;7.03;6.32;;;3.00;95.10;;;;;;6357598;27;20039;-77
2021/01/13 00:48:46;;;;;;;6.97;6.28;;;1.50;94.70;;;;;;6375921;27;20346;-76
2021/01/13 00:51:46;;;;;;;8.02;6.18;;;4.00;95.20;;;;;;6376201;27;20069;-75
2021/01/13 00:54:47;;;;;;;9.43;5.65;;;2.60;94.90;;;;;;6375866;27;20072;-76
2021/01/13 00:57:49;;;;;;;7.50;6.47;;;2.90;99.90;;;;;;6375605;27;20477;-76
2021/01/13 01:00:52;;;;;;;6.88;6.18;;;2.90;94.70;;;;;;6375721;27;20454;-76
2021/01/13 01:03:55;;;;;;;7.63;6.05;;;2.50;94.60;;;;;;6375206;27;20358;-76
2021/01/13 01:06:56;;;;;;;8.35;6.68;;;3.10;95.00;;;;;;6375278;27;20035;-76
2021/01/13 01:09:56;;;;;;;7.60;6.82;;;3.50;95.10;;;;;;6375371;27;20031;-75
2021/01/13 01:12:57;;;;;;;8.98;6.47;;;3.00;95.10;;;;;;6375395;27;20019;-76
2021/01/13 01:15:58;;;;;;;7.82;6.75;;;2.80;99.90;;;;;;6356790;27;20027;-76
2021/01/13 01:18:59;;;;;;;11.13;7.20;;;2.50;95.10;;;;;;6375359;27;20030;-75
2021/01/13 01:21:59;;;;;;;7.72;6.93;;;3.60;95.70;;;;;;6375088;27;20060;-77
2021/01/13 01:25:00;;;;;;;8.07;7.28;;;2.80;95.20;;;;;;6356406;27;20027;-76
2021/01/13 01:28:01;;;;;;;8.43;6.50;;;2.30;95.40;;;;;;6375244;27;20373;-76
2021/01/13 01:31:01;;;;;;;8.07;6.65;;;2.20;99.90;;;;;;6374955;27;20441;-76
2021/01/13 01:34:02;;;;;;;7.22;5.85;;;2.40;99.90;;;;;;6374722;27;20015;-75
2021/01/13 01:37:02;;;;;;;8.13;6.43;;;2.30;95.00;;;;;;6374779;27;20034;-76
2021/01/13 01:40:04;;;;;;;7.18;6.47;;;2.90;95.00;;;;;;6374759;27;20034;-76
2021/01/13 01:43:05;;;;;;;7.55;6.75;;;2.30;94.90;;;;;;6355912;27;20027;-77
2021/01/13 01:46:06;;;;;;;8.48;7.15;;;2.80;95.10;;;;;;6374469;27;20122;-76
2021/01/13 01:49:06;;;;;;;7.38;6.57;;;2.20;95.10;;;;;;6374552;27;20614;-76
2021/01/13 01:52:17;;;;;;;6.88;5.65;;;2.10;95.00;;;;;;6356125;27;20063;-75
2021/01/13 01:55:17;;;;;;;7.15;6.10;;;3.30;95.10;;;;;;6373268;27;20019;-76
2021/01/13 01:58:28;;;;;;;6.25;5.65;;;2.00;95.00;;;;;;6338710;27;20023;-76
2021/01/13 02:01:35;;;;;;;8.55;6.65;;;1.80;94.80;;;;;;6374336;27;20461;-76
2021/01/13 02:04:37;;;;;;;8.32;6.95;;;1.90;94.70;;;;;;6373789;27;20047;-76
2021/01/13 02:07:38;;;;;;;11.27;6.77;;;2.60;95.30;;;;;;6373859;27;20092;-76
2021/01/13 02:10:41;;;;;;;9.32;7.00;;;1.80;95.00;;;;;;6373767;27;20031;-76
2021/01/13 02:13:43;;;;;;;6.90;6.18;;;1.80;95.20;;;;;;6373868;27;20410;-76
2021/01/13 02:16:50;;;;;;;7.15;6.32;;;2.30;95.30;;;;;;6355831;27;20111;-76
2021/01/13 02:20:05;;;;;;;8.82;6.82;;;1.70;95.30;;;;;;6373859;27;20035;-77
2021/01/13 02:23:08;;;;;;;7.30;6.47;;;1.70;95.50;;;;;;6373597;27;20019;-76
2021/01/13 02:26:17;;;;;;;8.10;6.72;;;1.70;95.40;;;;;;6373652;27;20019;-76
2021/01/13 02:29:43;;;;;;;8.98;6.65;;;1.60;95.40;;;;;;6373384;27;20516;-76
2021/01/13 02:32:47;;;;;;;7.22;6.50;;;1.50;99.90;;;;;;6355009;27;20027;-78
2021/01/13 02:36:09;;;;;;;8.35;7.03;;;3.00;99.90;;;;;;6355480;27;20411;-77
2021/01/13 02:39:09;;;;;;;8.43;6.78;;;1.60;95.50;;;;;;6356414;27;20114;-76
2021/01/13 02:42:15;;;;;;;10.20;7.32;;;1.80;95.50;;;;;;6338024;27;20028;-77
2021/01/13 02:45:19;;;;;;;8.60;7.70;;;1.60;95.30;;;;;;6355448;27;20483;-76
2021/01/13 02:48:20;;;;;;;9.75;8.52;;;1.50;99.90;;;;;;6372844;27;20023;-76
2021/01/13 02:51:21;;;;;;;10.52;8.48;;;1.50;95.30;;;;;;6373148;27;20022;-76
2021/01/13 02:54:27;;;;;;;12.85;8.93;;;1.60;95.60;;;;;;6337863;27;20063;-76
2021/01/13 02:57:28;;;;;;;10.05;8.45;;;2.10;95.60;;;;;;6373056;27;20023;-76
2021/01/13 03:00:29;;;;;;;9.65;8.30;;;2.60;96.00;;;;;;6354534;27;20441;-76
2021/01/13 03:03:31;;;;;;;9.32;7.35;;;1.50;99.90;;;;;;6372911;27;20054;-76
2021/01/13 03:06:34;;;;;;;10.27;7.35;;;2.40;99.90;;;;;;6372245;27;20365;-76
2021/01/13 03:09:36;;;;;;;11.35;8.15;;;3.00;95.70;;;;;;6354773;27;20027;-75
2021/01/13 03:12:39;;;;;;;9.60;7.72;;;2.70;95.60;;;;;;6354342;27;20015;-76
2021/01/13 03:15:40;;;;;;;8.52;7.63;;;2.20;95.70;;;;;;6372593;28;20058;-76
2021/01/13 03:18:57;;;;;;;8.73;7.80;;;1.40;95.30;;;;;;6372788;28;20015;-76
2021/01/13 03:22:05;;;;;;;8.48;7.25;;;1.40;99.70;;;;;;6372885;28;20080;-76
2021/01/13 03:25:06;;;;;;;9.00;7.65;;;1.50;95.50;;;;;;6337474;27;20051;-76
2021/01/13 03:28:07;;;;;;;11.65;7.90;;;1.30;95.30;;;;;;6337523;27;20368;-76
2021/01/13 03:31:13;;;;;;;11.10;8.20;;;1.10;95.60;;;;;;6337357;28;20022;-76
2021/01/13 03:34:28;;;;;;;8.77;7.88;;;1.30;95.40;;;;;;6372428;28;20077;-75
2021/01/13 03:37:41;;;;;;;11.02;8.10;;;1.40;99.90;;;;;;6372488;27;20024;-76
2021/01/13 03:40:49;;;;;;;9.93;8.70;;;1.40;95.50;;;;;;6372501;27;20023;-76
2021/01/13 03:43:52;;;;;;;9.00;7.60;;;1.40;95.40;;;;;;6372310;27;20027;-77
2021/01/13 03:46:56;;;;;;;10.20;7.75;;;2.40;95.70;;;;;;6354095;27;20042;-76
2021/01/13 03:50:20;;;;;;;8.85;7.25;;;1.20;99.90;;;;;;6372490;27;20019;-75
2021/01/13 03:53:20;;;;;;;10.32;7.80;;;1.40;95.00;;;;;;6372358;28;20031;-77
2021/01/13 03:56:30;;;;;;;10.15;7.53;;;2.00;95.30;;;;;;6336992;28;20104;-75
2021/01/13 03:59:52;;;;;;;8.38;7.50;;;2.80;95.30;;;;;;6337027;28;20488;-75
2021/01/13 04:03:12;;;;;;;7.80;6.80;;;1.30;94.90;;;;;;6372262;28;20019;-76
2021/01/13 04:06:13;;;;;;;9.85;8.05;;;1.20;95.30;;;;;;6353759;28;20064;-76
2021/01/13 04:09:17;;;;;;;11.40;8.45;;;1.20;95.20;;;;;;6372045;27;20047;-76
2021/01/13 04:12:21;;;;;;;9.82;7.75;;;1.20;95.20;;;;;;6372339;28;20365;-76
2021/01/13 04:15:35;;;;;;;10.07;7.97;;;1.20;95.30;;;;;;6372007;28;20525;-76
2021/01/13 04:18:35;;;;;;;9.75;8.02;;;1.30;99.60;;;;;;6357321;27;20032;-76
2021/01/13 04:21:36;;;;;;;9.90;8.00;;;1.20;95.60;;;;;;6376575;27;20092;-77
2021/01/13 04:24:37;;;;;;;9.82;7.80;;;2.10;95.60;;;;;;6376733;27;20094;-77
2021/01/13 04:27:38;;;;;;;9.80;8.30;;;1.20;95.40;;;;;;6376160;27;20031;-75
2021/01/13 04:30:39;;;;;;;10.38;7.45;;;1.20;95.10;;;;;;6358153;27;20070;-76
2021/01/13 04:33:39;;;;;;;10.10;7.88;;;1.20;95.30;;;;;;6376097;27;20027;-76
2021/01/13 04:36:40;;;;;;;9.98;8.10;;;1.20;95.50;;;;;;6376055;27;20064;-76
2021/01/13 04:39:41;;;;;;;8.77;6.93;;;1.10;95.20;;;;;;6340947;27;20046;-75
2021/01/13 04:42:58;;;;;;;10.40;7.50;;;1.10;95.40;;;;;;6375966;27;20023;-76
2021/01/13 04:45:59;;;;;;;8.68;7.05;;;2.40;95.40;;;;;;6359506;27;20121;-75
2021/01/13 04:49:16;;;;;;;11.45;6.57;;;2.60;95.70;;;;;;6340493;27;20031;-75
2021/01/13 04:52:17;;;;;;;7.93;6.82;;;1.00;95.40;;;;;;6357418;27;20023;-76
2021/01/13 04:55:25;;;;;;;7.70;6.90;;;1.10;95.40;;;;;;6375690;27;20080;-76
2021/01/13 04:58:51;;;;;;;9.73;7.80;;;2.40;95.80;;;;;;6375720;27;20019;-75
2021/01/13 05:02:05;;;;;;;11.30;7.43;;;0.90;99.90;;;;;;6342875;27;20479;-77
2021/01/13 05:05:06;;;;;;;9.13;7.63;;;1.20;95.30;;;;;;6375081;27;20384;-75
2021/01/13 05:08:26;;;;;;;9.77;7.35;;;0.90;95.40;;;;;;6340246;27;20133;-76
2021/01/13 05:11:27;;;;;;;9.13;6.95;;;2.10;95.50;;;;;;6375256;27;20019;-76
2021/01/13 05:14:27;;;;;;;13.80;8.07;;;1.20;95.60;;;;;;6339782;27;20023;-76
2021/01/13 05:17:34;;;;;;;10.95;8.25;;;0.70;99.90;;;;;;6339879;27;20034;-75
2021/01/13 05:20:41;;;;;;;11.35;7.63;;;0.60;95.20;;;;;;6375240;27;20119;-75
2021/01/13 05:23:44;;;;;;;9.63;7.75;;;0.70;95.30;;;;;;6375038;27;20106;-75
2021/01/13 05:26:45;;;;;;;10.70;7.45;;;0.80;95.40;;;;;;6356567;27;20084;-76
2021/01/13 05:29:45;;;;;;;11.50;8.45;;;1.90;96.00;;;;;;6339288;27;20019;-75
2021/01/13 05:32:46;;;;;;;10.25;8.45;;;;;;;;;;6339638;27;20045;-76
2021/01/13 05:35:52;;;;;;;11.05;9.32;;;0.70;99.60;;;;;;6356872;27;20031;-77
2021/01/13 05:39:10;;;;;;;12.00;8.20;;;0.70;95.80;;;;;;6374847;27;20015;-76
2021/01/13 05:42:11;;;;;;;11.88;8.93;;;0.70;95.60;;;;;;6375041;27;20376;-76
2021/01/13 05:45:12;;;;;;;10.55;8.05;;;0.70;95.90;;;;;;6374669;27;20028;-76
2021/01/13 05:48:15;;;;;;;14.40;8.45;;;0.70;99.90;;;;;;6374800;27;20026;-76
2021/01/13 05:51:25;;;;;;;12.43;8.68;;;1.30;95.70;;;;;;6374552;27;20027;-75
2021/01/13 05:54:26;;;;;;;15.35;10.93;;;0.70;95.70;;;;;;6374605;27;20023;-75
2021/01/13 05:57:26;;;;;;;15.80;12.32;;;2.20;95.90;;;;;;6339003;27;20059;-75
2021/01/13 06:00:29;;;;;;;35.55;24.38;;;0.70;95.80;;;;;;6374753;27;20422;-76
2021/01/13 06:03:30;;;;;;;13.00;9.75;;;0.80;99.90;;;;;;6374296;27;20489;-76
2021/01/13 06:06:34;;;;;;;15.82;9.88;;;0.60;99.90;;;;;;6374434;27;20042;-75
2021/01/13 06:09:41;;;;;;;13.95;9.88;;;2.20;96.20;;;;;;6355865;27;20049;-77
2021/01/13 06:12:45;;;;;;;17.27;10.90;;;0.60;95.50;;;;;;6374109;27;20080;-75
2021/01/13 06:15:46;;;;;;;17.63;11.30;;;1.30;96.00;;;;;;6355991;27;20022;-76
2021/01/13 06:18:47;;;;;;;17.63;11.25;;;;;;;;;;6373810;27;20428;-75
2021/01/13 06:22:02;;;;;;;14.77;10.85;;;0.60;99.90;;;;;;6373862;27;20023;-76
2021/01/13 06:25:06;;;;;;;14.82;10.90;;;1.90;96.20;;;;;;6355436;27;20026;-75
2021/01/13 06:28:23;;;;;;;15.13;10.52;;;0.60;95.80;;;;;;6373591;27;20038;-76
2021/01/13 06:31:24;;;;;;;18.40;11.65;;;;;;;;;;6373847;27;20083;-76
2021/01/13 06:34:29;;;;;;;16.23;11.77;;;0.80;99.90;;;;;;6355325;27;20023;-76
2021/01/13 06:37:45;;;;;;;14.30;9.98;;;0.60;95.70;;;;;;6373481;27;20019;-76
2021/01/13 06:40:49;;;;;;;16.13;10.32;;;1.00;96.30;;;;;;6354616;27;20019;-77
2021/01/13 06:43:57;;;;;;;12.40;9.52;;;0.70;95.90;;;;;;6338680;27;20019;-76
2021/01/13 06:47:03;;;;;;;16.17;11.15;;;0.80;96.30;;;;;;6373393;27;20399;-76
2021/01/13 06:50:04;;;;;;;17.90;11.90;;;0.60;99.90;;;;;;6373285;27;20106;-76
2021/01/13 06:53:09;;;;;;;13.13;10.48;;;0.70;95.90;;;;;;6373300;27;20072;-75
2021/01/13 06:56:10;;;;;;;14.45;10.75;;;1.30;96.20;;;;;;6373178;27;20057;-75
2021/01/13 06:59:11;;;;;;;12.95;9.70;;;0.70;95.80;;;;;;6373336;27;20051;-75
2021/01/13 07:02:11;;;;;;;15.65;10.48;;;0.70;96.10;;;;;;6337834;27;20030;-76
2021/01/13 07:05:12;;;;;;;14.32;11.50;;;0.80;99.90;;;;;;6372967;27;20407;-75
2021/01/13 07:08:12;;;;;;;19.98;12.43;;;0.80;99.90;;;;;;6354515;27;20065;-76
2021/01/13 07:11:13;;;;;;;18.80;12.73;;;2.00;96.50;;;;;;6373238;27;20364;-76
2021/01/13 07:14:14;;;;;;;20.35;13.02;;;1.00;95.90;;;;;;6373016;28;20027;-75
2021/01/13 07:17:16;;;;;;;18.20;12.55;;;0.80;96.10;;;;;;6337943;28;20027;-75
2021/01/13 07:20:16;;;;;;;18.67;11.68;;;1.40;96.00;;;;;;6354925;28;20026;-77
2021/01/13 07:23:17;;;;;;;28.17;16.27;;;0.80;96.00;;;;;;6372845;27;20027;-76
2021/01/13 07:26:18;;;;;;;31.20;18.40;;;2.70;96.50;;;;;;6372852;28;20027;-76
2021/01/13 07:29:19;;;;;;;25.95;15.63;;;0.60;95.70;;;;;;6372633;27;20030;-75
2021/01/13 07:32:21;;;;;;;19.20;12.82;;;2.30;96.30;;;;;;6354719;28;20364;-75
2021/01/13 07:35:22;;;;;;;17.33;12.73;;;0.70;95.40;;;;;;6372780;27;20023;-76
2021/01/13 07:38:22;;;;;;;18.73;12.68;;;0.90;95.70;;;;;;6337612;28;20103;-76
2021/01/13 07:41:56;;;;;;;16.63;12.30;;;0.80;99.90;;;;;;6337565;28;20055;-75
2021/01/13 07:45:04;;;;;;;38.25;18.58;;;0.90;95.40;;;;;;6357654;28;20457;-76
2021/01/13 07:48:14;;;;;;;76.78;28.77;;;1.60;96.00;;;;;;6372080;28;20039;-76
2021/01/13 07:51:18;;;;;;;52.15;23.38;;;0.90;95.60;;;;;;6372374;27;20038;-76
2021/01/13 07:54:32;;;;;;;35.85;19.23;;;1.90;96.00;;;;;;6359334;27;20023;-76
2021/01/13 07:57:41;;;;;;;27.98;16.95;;;2.40;96.00;;;;;;6377512;27;20023;-76
2021/01/13 08:00:56;;;;;;;85.80;40.00;;;1.00;95.30;;;;;;6377234;27;20025;-76
2021/01/13 08:03:57;;;;;;;29.60;18.45;;;2.30;95.70;;;;;;6360624;27;20039;-76
2021/01/13 08:06:58;;;;;;;24.88;16.25;;;1.20;99.90;;;;;;6376970;27;20039;-76
2021/01/13 08:09:58;;;;;;;17.08;13.60;;;1.20;99.90;;;;;;6358827;27;20030;-77
2021/01/13 08:13:11;;;;;;;19.70;14.18;;;1.30;95.50;;;;;;6341771;27;20368;-76
2021/01/13 08:16:38;;;;;;;19.95;12.98;;;1.20;95.00;;;;;;6377406;27;20069;-76
2021/01/13 08:20:04;;;;;;;14.07;11.18;;;1.30;95.00;;;;;;6342089;27;20028;-76
2021/01/13 08:23:16;;;;;;;16.35;12.43;;;1.30;94.80;;;;;;6376701;27;20410;-76
2021/01/13 08:26:17;;;;;;;20.47;13.73;;;1.40;94.70;;;;;;6376826;27;20034;-76
2021/01/13 08:29:21;;;;;;;17.05;14.18;;;1.60;94.90;;;;;;6376538;27;20024;-76
2021/01/13 08:32:27;;;;;;;17.98;13.43;;;1.70;94.70;;;;;;6358346;27;20369;-77
2021/01/13 08:35:35;;;;;;;38.13;25.45;;;3.20;94.90;;;;;;6342273;27;20387;-76
2021/01/13 08:38:36;;;;;;;57.92;40.03;;;1.60;94.50;;;;;;6376570;27;20031;-76
2021/01/13 08:41:36;;;;;;;61.50;42.72;;;1.60;94.20;;;;;;6376343;27;20373;-76
2021/01/13 08:44:39;;;;;;;46.63;29.45;;;2.90;94.70;;;;;;6357894;27;20019;-76
2021/01/13 08:47:39;;;;;;;22.73;15.48;;;1.70;94.20;;;;;;6376090;27;20084;-76
2021/01/13 08:50:42;;;;;;;19.45;13.60;;;3.40;94.70;;;;;;6340689;27;20473;-76
2021/01/13 08:53:42;;;;;;;21.92;14.93;;;1.70;94.20;;;;;;6376272;27;20027;-76
2021/01/13 08:56:58;;;;;;;23.55;15.50;;;1.70;94.20;;;;;;6375893;27;20034;-75
2021/01/13 09:00:06;;;;;;;21.42;15.57;;;1.70;94.50;;;;;;6376071;27;20033;-75
2021/01/13 09:03:11;;;;;;;20.00;16.23;;;1.70;94.20;;;;;;6340851;27;20035;-76
2021/01/13 09:06:22;;;;;;;18.90;14.85;;;1.90;94.10;;;;;;6375611;27;20031;-76
2021/01/13 09:09:22;;;;;;;17.80;15.25;;;1.90;93.80;;;;;;6375604;27;20427;-76
2021/01/13 09:12:32;;;;;;;20.42;13.95;;;3.00;93.90;;;;;;6357447;27;20058;-76
2021/01/13 09:15:33;;;;;;;20.50;14.45;;;2.10;93.40;;;;;;6375447;27;20057;-76
2021/01/13 09:18:35;;;;;;;16.40;12.52;;;2.10;93.10;;;;;;6376000;27;20404;-76
2021/01/13 09:21:38;;;;;;;21.55;14.68;;;3.00;93.50;;;;;;6375181;27;20050;-76
2021/01/13 09:24:40;;;;;;;23.23;16.13;;;2.10;93.30;;;;;;6375458;27;20039;-76
2021/01/13 09:27:42;;;;;;;18.30;14.35;;;3.20;93.50;;;;;;6375067;27;20035;-76
2021/01/13 09:30:43;;;;;;;21.67;14.75;;;3.30;93.70;;;;;;6340207;27;20027;-76
2021/01/13 09:33:43;;;;;;;26.90;17.45;;;2.80;93.50;;;;;;6375301;27;20027;-76
2021/01/13 09:36:59;;;;;;;25.90;18.30;;;2.30;93.60;;;;;;6374962;27;20031;-76
2021/01/13 09:40:01;;;;;;;23.35;17.50;;;2.40;93.60;;;;;;6374954;27;20023;-76
2021/01/13 09:43:01;;;;;;;20.53;16.30;;;3.40;93.60;;;;;;6374867;27;20022;-76
2021/01/13 09:46:07;;;;;;;18.05;13.77;;;2.70;93.10;;;;;;6356490;27;20281;-75
2021/01/13 09:49:09;;;;;;;19.65;14.65;;;4.00;92.80;;;;;;6374542;27;20026;-76
2021/01/13 09:52:11;;;;;;;17.77;13.63;;;3.40;92.20;;;;;;6374792;27;20046;-77
2021/01/13 09:55:12;;;;;;;16.63;13.35;;;3.60;99.90;;;;;;6374451;27;20023;-75
2021/01/13 09:58:17;;;;;;;15.35;13.30;;;3.70;91.10;;;;;;6374522;27;20030;-76
2021/01/13 10:01:31;;;;;;;21.60;14.60;;;3.90;90.80;;;;;;6374404;27;20098;-76
2021/01/13 10:04:32;;;;;;;15.15;12.85;;;4.60;95.70;;;;;;6374225;27;20050;-77
2021/01/13 10:07:34;;;;;;;17.80;13.15;;;4.70;87.70;;;;;;6374171;27;20454;-77
2021/01/13 10:10:34;;;;;;;14.20;11.88;;;5.10;99.00;;;;;;6374317;27;20465;-76
2021/01/13 10:13:42;;;;;;;20.85;16.23;;;4.90;84.90;;;;;;6374137;27;20023;-76
2021/01/13 10:16:44;;;;;;;19.27;13.68;;;5.10;84.90;;;;;;6373245;27;20023;-76
2021/01/13 10:19:45;;;;;;;19.40;13.13;;;4.90;84.00;;;;;;6373912;27;20054;-76
2021/01/13 10:22:46;;;;;;;14.48;11.35;;;5.00;84.30;;;;;;6373834;27;20019;-76
2021/01/13 10:25:47;;;;;;;15.20;11.73;;;;;;;;;;6373755;27;20027;-76
2021/01/13 10:28:48;;;;;;;12.18;9.65;;;5.50;89.50;;;;;;6374027;27;20030;-78
2021/01/13 10:31:49;;;;;;;13.70;10.85;;;5.90;81.90;;;;;;6355384;27;20027;-76
2021/01/13 10:34:53;;;;;;;10.68;8.60;;;6.00;79.90;;;;;;6373549;27;20015;-76
2021/01/13 10:37:55;;;;;;;9.70;8.70;;;6.30;78.40;;;;;;6373831;27;20027;-78
2021/01/13 10:40:56;;;;;;;9.40;8.18;;;6.60;77.80;;;;;;6373461;27;20361;-76
2021/01/13 10:44:00;;;;;;;8.15;6.82;;;7.10;82.10;;;;;;6373703;27;20023;-76
2021/01/13 10:47:08;;;;;;;7.43;6.38;;;7.40;72.90;;;;;;6355014;27;20580;-76
2021/01/13 10:50:09;;;;;;;6.32;5.70;;;7.70;71.60;;;;;;6373485;27;20023;-76
2021/01/13 10:53:10;;;;;;;8.95;5.53;;;8.40;69.30;;;;;;6338055;27;20031;-78
2021/01/13 10:56:15;;;;;;;6.25;4.85;;;9.00;66.20;;;;;;6373494;27;20074;-78
2021/01/13 10:59:16;;;;;;;4.35;3.70;;;9.20;63.50;;;;;;6355488;27;20450;-77
2021/01/13 11:02:17;;;;;;;4.47;3.78;;;9.80;61.90;;;;;;6373394;27;20038;-78
2021/01/13 11:05:18;;;;;;;4.18;3.28;;;10.10;60.40;;;;;;6372995;27;20047;-75
2021/01/13 11:08:18;;;;;;;3.67;2.95;;;9.90;60.00;;;;;;6372901;27;20045;-76
2021/01/13 11:11:20;;;;;;;5.15;3.83;;;9.80;58.80;;;;;;6337944;28;20023;-76
2021/01/13 11:14:30;;;;;;;4.45;2.90;;;9.60;60.10;;;;;;6372885;27;20027;-77
2021/01/13 11:17:32;;;;;;;4.30;3.03;;;9.50;58.60;;;;;;6373095;28;20027;-76
2021/01/13 11:20:33;;;;;;;6.38;2.63;;;9.40;61.20;;;;;;6372806;27;20038;-78
2021/01/13 11:23:46;;;;;;;3.10;2.40;;;9.30;60.60;;;;;;6354784;28;20123;-76
2021/01/13 11:26:48;;;;;;;4.35;3.15;;;9.20;59.90;;;;;;6373592;27;20084;-77
2021/01/13 11:29:53;;;;;;;5.32;4.00;;;9.20;60.00;;;;;;6343210;27;20019;-76
2021/01/13 11:32:55;;;;;;;8.02;6.18;;;8.70;60.90;;;;;;6378058;27;20019;-77
2021/01/13 11:35:56;;;;;;;11.20;6.57;;;8.90;61.40;;;;;;6359909;27;20019;-77
2021/01/13 11:38:59;;;;;;;3.50;2.75;;;8.90;61.10;;;;;;6377735;27;20418;-76
2021/01/13 11:42:16;;;;;;;8.68;4.85;;;9.10;60.60;;;;;;6377678;27;20046;-76
2021/01/13 11:45:21;;;;;;;6.75;3.47;;;9.40;59.60;;;;;;6360612;27;20135;-77
2021/01/13 11:48:27;;;;;;;12.95;8.40;;;9.30;59.10;;;;;;6377622;27;20071;-76
2021/01/13 11:51:28;;;;;;;14.55;9.52;;;9.70;60.40;;;;;;6359600;27;20027;-76
2021/01/13 11:54:30;;;;;;;3.35;2.88;;;9.30;60.10;;;;;;6359454;27;20342;-78
2021/01/13 11:57:34;;;;;;;6.38;4.13;;;8.90;59.10;;;;;;6377418;27;20406;-78
2021/01/13 12:00:39;;;;;;;6.13;4.20;;;8.80;60.90;;;;;;6377353;27;20031;-77
2021/01/13 12:03:39;;;;;;;7.25;4.90;;;8.60;60.70;;;;;;6377516;27;20469;-76
2021/01/13 12:06:56;;;;;;;3.00;2.70;;;8.60;61.70;;;;;;6377016;27;20038;-76
2021/01/13 12:10:13;;;;;;;3.53;2.70;;;8.50;59.20;;;;;;6360843;27;20509;-76
2021/01/13 12:13:16;;;;;;;2.50;2.30;;;8.40;59.40;;;;;;6377222;27;20031;-77
2021/01/13 12:16:17;;;;;;;4.53;2.58;;;8.30;58.20;;;;;;6376949;27;20062;-76
2021/01/13 12:19:37;;;;;;;6.95;4.95;;;8.30;59.30;;;;;;6376753;27;20035;-76
2021/01/13 12:22:38;;;;;;;4.18;3.10;;;8.00;58.60;;;;;;6376832;27;20034;-76
2021/01/13 12:25:38;;;;;;;3.20;2.75;;;8.00;60.40;;;;;;6376925;27;20027;-77
2021/01/13 12:28:39;;;;;;;3.30;2.50;;;8.20;61.10;;;;;;6376688;27;20368;-76
2021/01/13 12:31:43;;;;;;;3.95;2.70;;;8.30;62.10;;;;;;6376574;27;20068;-77
2021/01/13 12:34:43;;;;;;;3.78;2.65;;;8.30;61.00;;;;;;6376549;27;20026;-76
2021/01/13 12:37:50;;;;;;;2.80;2.50;;;8.20;60.00;;;;;;6357942;27;20034;-76
2021/01/13 12:40:51;;;;;;;3.58;2.75;;;8.30;60.90;;;;;;6375849;27;20023;-76
2021/01/13 12:43:55;;;;;;;4.85;2.95;;;7.90;61.40;;;;;;6340870;27;20032;-76
2021/01/13 12:47:03;;;;;;;3.35;2.80;;;7.60;62.70;;;;;;6376309;27;20041;-76
2021/01/13 12:50:04;;;;;;;3.85;2.92;;;7.50;63.20;;;;;;6376602;27;20056;-78
2021/01/13 12:53:05;;;;;;;7.13;2.95;;;7.50;63.90;;;;;;6376458;27;20035;-77
2021/01/13 12:56:05;;;;;;;4.55;2.67;;;7.40;64.80;;;;;;6375907;27;20030;-78
2021/01/13 12:59:06;;;;;;;3.85;2.80;;;7.40;64.00;;;;;;6376411;27;20062;-76
2021/01/13 13:02:07;;;;;;;3.22;2.60;;;7.40;65.00;;;;;;6376020;27;20034;-77
2021/01/13 13:05:09;;;;;;;3.63;2.85;;;7.40;91.50;;;;;;6375473;27;20183;-77
2021/01/13 13:08:10;;;;;;;4.30;2.40;;;7.50;76.30;;;;;;6375680;27;20031;-78
2021/01/13 13:11:10;;;;;;;4.18;2.47;;;7.30;65.80;;;;;;6375652;27;20026;-76
2021/01/13 13:14:12;;;;;;;5.75;2.90;;;7.20;63.40;;;;;;6375771;27;20023;-77
2021/01/13 13:17:12;;;;;;;4.07;2.55;;;7.10;66.80;;;;;;6375471;27;20042;-76
2021/01/13 13:20:13;;;;;;;3.92;2.70;;;7.20;66.30;;;;;;6375673;27;20023;-76
2021/01/13 13:23:14;;;;;;;4.38;2.75;;;6.80;68.10;;;;;;6323124;27;20708;-76
2021/01/13 13:26:14;;;;;;;4.40;2.90;;;7.30;67.30;;;;;;6375455;27;20058;-76
2021/01/13 13:29:15;;;;;;;3.75;2.70;;;7.00;67.40;;;;;;6375231;27;20055;-76
2021/01/13 13:32:18;;;;;;;4.65;3.00;;;7.00;68.10;;;;;;6375197;27;20102;-76
2021/01/13 13:35:18;;;;;;;;;;;6.70;68.50;;;;;;6357570;27;20462;-77
2021/01/13 13:38:19;;;;;;;6.03;2.85;;;6.20;75.40;;;;;;6374876;27;19947;-76
2021/01/13 13:41:19;;;;;;;3.83;3.20;;;6.30;76.70;;;;;;6374788;27;20026;-76
2021/01/13 13:44:20;;;;;;;3.83;2.83;;;5.60;75.20;;;;;;6374788;27;20076;-76
2021/01/13 13:47:21;;;;;;;5.03;3.50;;;5.60;78.00;;;;;;6374890;27;20035;-76
2021/01/13 13:50:21;;;;;;;2.85;2.35;;;5.40;77.80;;;;;;6374777;27;20027;-77
2021/01/13 13:53:22;;;;;;;6.90;2.78;;;5.50;80.90;;;;;;6374799;27;20031;-75
2021/01/13 13:56:22;;;;;;;3.25;2.70;;;5.50;80.00;;;;;;6374546;27;20381;-77
2021/01/13 13:59:23;;;;;;;3.72;3.20;;;5.50;92.10;;;;;;6374435;27;20051;-76
2021/01/13 14:02:26;;;;;;;4.60;2.97;;;5.70;82.90;;;;;;6374467;27;20023;-76
2021/01/13 14:05:26;;;;;;;;;;;5.40;82.20;;;;;;6374907;27;20126;-76
2021/01/13 14:08:27;;;;;;;10.35;3.28;;;5.50;84.00;;;;;;6374291;27;20261;-76
2021/01/13 14:11:28;;;;;;;3.20;2.90;;;5.80;82.50;;;;;;6374148;27;20015;-76
2021/01/13 14:14:28;;;;;;;3.80;3.00;;;5.70;84.40;;;;;;6374197;27;20035;-76
2021/01/13 14:17:30;;;;;;;3.92;2.90;;;5.60;84.40;;;;;;6373974;27;20080;-76
2021/01/13 14:20:31;;;;;;;6.55;3.60;;;5.40;83.30;;;;;;6373928;27;20019;-76
2021/01/13 14:23:31;;;;;;;4.32;3.60;;;5.60;84.80;;;;;;6373851;27;20030;-78
2021/01/13 14:26:33;;;;;;;4.82;3.50;;;5.30;83.10;;;;;;6373948;27;20031;-76
2021/01/13 14:29:33;;;;;;;3.25;2.95;;;5.40;86.20;;;;;;6374097;27;20461;-76
2021/01/13 14:32:34;;;;;;;3.88;3.20;;;5.60;86.50;;;;;;6373522;27;20034;-76
2021/01/13 14:35:34;;;;;;;4.05;3.35;;;5.50;85.40;;;;;;6373699;27;20445;-76
2021/01/13 14:38:37;;;;;;;3.10;2.80;;;5.20;87.90;;;;;;6373460;27;20027;-78
2021/01/13 14:41:37;;;;;;;4.18;3.30;;;5.60;85.60;;;;;;6373665;27;20421;-76
2021/01/13 14:44:38;;;;;;;3.90;3.28;;;5.50;88.00;;;;;;6373510;27;20031;-77
2021/01/13 14:47:38;;;;;;;5.00;3.67;;;5.30;87.00;;;;;;6373544;27;20469;-76
2021/01/13 14:50:39;;;;;;;4.50;3.65;;;5.50;95.30;;;;;;6373245;27;20034;-76
2021/01/13 14:53:40;;;;;;;3.92;3.53;;;5.70;89.30;;;;;;6373486;27;20342;-77
2021/01/13 14:56:40;;;;;;;3.70;3.00;;;5.60;87.60;;;;;;6373233;27;20075;-76
2021/01/13 14:59:41;;;;;;;4.38;3.30;;;5.30;87.20;;;;;;6373230;27;20015;-77
2021/01/13 15:02:42;;;;;;;3.90;3.30;;;5.10;86.00;;;;;;6372612;27;20083;-78
2021/01/13 15:05:42;;;;;;;3.28;2.90;;;5.10;87.10;;;;;;6372762;27;20066;-78
2021/01/13 15:08:49;;;;;;;3.75;3.30;;;5.40;86.10;;;;;;6373233;27;20037;-76
2021/01/13 15:11:50;;;;;;;4.00;3.53;;;5.40;85.80;;;;;;6372948;27;20068;-77
2021/01/13 15:14:50;;;;;;;7.88;4.75;;;5.10;86.70;;;;;;6373010;27;20028;-76
2021/01/13 15:17:51;;;;;;;4.90;3.30;;;5.70;85.00;;;;;;6372948;28;20099;-76
2021/01/13 15:20:52;;;;;;;4.63;3.67;;;5.40;86.30;;;;;;6354679;28;20361;-77
2021/01/13 15:23:52;;;;;;;4.60;3.40;;;5.40;84.60;;;;;;6372865;27;20064;-76
2021/01/13 15:26:53;;;;;;;3.75;3.10;;;5.00;93.30;;;;;;6373210;28;20031;-76
2021/01/13 15:29:54;;;;;;;3.88;3.47;;;5.30;85.80;;;;;;6354334;28;20361;-76
2021/01/13 15:32:55;;;;;;;3.88;3.17;;;5.00;84.50;;;;;;6372622;27;20026;-76
2021/01/13 15:35:55;;;;;;;3.83;3.28;;;5.40;85.80;;;;;;6354486;28;20377;-78
2021/01/13 15:38:56;;;;;;;4.13;3.10;;;5.30;85.00;;;;;;6372571;27;20445;-76
2021/01/13 15:42:04;;;;;;;3.72;3.13;;;5.10;86.70;;;;;;6372744;27;20035;-76
2021/01/13 15:45:06;;;;;;;4.20;3.30;;;5.10;84.30;;;;;;6372599;27;20623;-76
2021/01/13 15:48:07;;;;;;;5.43;3.95;;;5.10;84.50;;;;;;6372579;28;20031;-77
2021/01/13 15:51:08;;;;;;;4.28;3.70;;;5.00;87.00;;;;;;6372379;27;20053;-76
2021/01/13 15:54:09;;;;;;;3.58;3.20;;;5.00;87.00;;;;;;6372655;27;20457;-76
2021/01/13 15:57:14;;;;;;;3.88;3.47;;;5.20;88.40;;;;;;6372498;27;20035;-76
2021/01/13 16:00:16;;;;;;;3.05;2.67;;;5.40;88.80;;;;;;6355017;28;20376;-76
2021/01/13 16:03:17;;;;;;;4.15;2.97;;;5.10;87.20;;;;;;6372187;28;20058;-76